sensor_id;sensor_type;location;lat;lon;timestamp;pressure;altitude;pressure_sealevel;temperature;humidity
15489;BME280;7846;48.830;9.116;2023-05-11T00:00:28;97665.22;;;15.56;65.82
15489;BME280;7846;48.830;9.116;2023-05-11T00:02:55;97666.78;;;15.72;65.61
15489;BME280;7846;48.830;9.116;2023-05-11T00:05:21;97668.75;;;15.63;65.61
15489;BME280;7846;48.830;9.116;2023-05-11T00:07:46;97669.66;;;15.70;65.35
15489;BME280;7846;48.830;9.116;2023-05-11T00:10:12;97660.78;;;15.63;65.48
15489;BME280;7846;48.830;9.116;2023-05-11T00:12:37;97654.97;;;15.46;65.72
15489;BME280;7846;48.830;9.116;2023-05-11T00:15:02;97648.44;;;15.49;65.88
15489;BME280;7846;48.830;9.116;2023-05-11T00:17:31;97645.75;;;15.70;65.51
15489;BME280;7846;48.830;9.116;2023-05-11T00:19:57;97654.69;;;15.41;65.87
15489;BME280;7846;48.830;9.116;2023-05-11T00:22:22;97653.03;;;15.62;65.71
15489;BME280;7846;48.830;9.116;2023-05-11T00:24:48;97653.72;;;15.70;65.37
15489;BME280;7846;48.830;9.116;2023-05-11T00:27:15;97657.63;;;15.75;65.69
15489;BME280;7846;48.830;9.116;2023-05-11T00:29:42;97652.22;;;15.61;65.65
15489;BME280;7846;48.830;9.116;2023-05-11T00:32:07;97652.31;;;15.46;66.11
15489;BME280;7846;48.830;9.116;2023-05-11T00:34:32;97649.53;;;15.33;66.11
15489;BME280;7846;48.830;9.116;2023-05-11T00:36:58;97653.34;;;15.52;66.22
15489;BME280;7846;48.830;9.116;2023-05-11T00:39:23;97645.44;;;15.59;66.05
15489;BME280;7846;48.830;9.116;2023-05-11T00:41:49;97646.91;;;15.61;66.13
15489;BME280;7846;48.830;9.116;2023-05-11T00:44:15;97649.25;;;15.49;66.04
15489;BME280;7846;48.830;9.116;2023-05-11T00:46:41;97643.84;;;15.64;66.09
15489;BME280;7846;48.830;9.116;2023-05-11T00:49:07;97651.34;;;15.54;66.05
15489;BME280;7846;48.830;9.116;2023-05-11T00:51:32;97651.28;;;15.47;66.13
15489;BME280;7846;48.830;9.116;2023-05-11T00:53:58;97653.72;;;15.70;65.91
15489;BME280;7846;48.830;9.116;2023-05-11T00:56:24;97653.63;;;15.64;66.22
15489;BME280;7846;48.830;9.116;2023-05-11T00:58:51;97650.72;;;15.80;65.84
15489;BME280;7846;48.830;9.116;2023-05-11T01:01:16;97648.41;;;15.70;65.75
15489;BME280;7846;48.830;9.116;2023-05-11T01:03:43;97650.84;;;15.72;66.07
15489;BME280;7846;48.830;9.116;2023-05-11T01:06:22;97653.69;;;15.99;65.76
15489;BME280;7846;48.830;9.116;2023-05-11T01:08:55;97647.31;;;15.93;65.94
15489;BME280;7846;48.830;9.116;2023-05-11T01:11:52;97652.91;;;16.05;65.56
15489;BME280;7846;48.830;9.116;2023-05-11T01:14:26;97650.84;;;15.65;65.84
15489;BME280;7846;48.830;9.116;2023-05-11T01:16:59;97649.38;;;15.91;65.92
15489;BME280;7846;48.830;9.116;2023-05-11T01:19:40;97655.94;;;16.02;65.56
15489;BME280;7846;48.830;9.116;2023-05-11T01:22:33;97656.34;;;15.99;65.60
15489;BME280;7846;48.830;9.116;2023-05-11T01:30:42;97643.31;;;15.76;66.25
15489;BME280;7846;48.830;9.116;2023-05-11T01:33:13;97642.50;;;15.68;66.27
15489;BME280;7846;48.830;9.116;2023-05-11T01:35:45;97643.19;;;15.84;66.43
15489;BME280;7846;48.830;9.116;2023-05-11T01:38:13;97640.34;;;15.85;66.03
15489;BME280;7846;48.830;9.116;2023-05-11T01:40:40;97638.00;;;15.69;66.38
15489;BME280;7846;48.830;9.116;2023-05-11T01:43:11;97645.44;;;15.80;66.26
15489;BME280;7846;48.830;9.116;2023-05-11T01:45:40;97642.91;;;15.72;65.95
15489;BME280;7846;48.830;9.116;2023-05-11T01:48:18;97638.44;;;15.72;66.21
15489;BME280;7846;48.830;9.116;2023-05-11T01:50:46;97640.28;;;15.79;65.49
15489;BME280;7846;48.830;9.116;2023-05-11T01:53:14;97648.06;;;15.80;65.71
15489;BME280;7846;48.830;9.116;2023-05-11T01:55:42;97641.16;;;15.86;65.53
15489;BME280;7846;48.830;9.116;2023-05-11T01:58:12;97640.97;;;15.87;65.95
15489;BME280;7846;48.830;9.116;2023-05-11T02:00:39;97643.91;;;15.71;65.73
15489;BME280;7846;48.830;9.116;2023-05-11T02:03:07;97639.94;;;15.88;65.80
15489;BME280;7846;48.830;9.116;2023-05-11T02:05:34;97642.34;;;15.77;65.98
15489;BME280;7846;48.830;9.116;2023-05-11T02:08:00;97646.13;;;15.67;66.00
15489;BME280;7846;48.830;9.116;2023-05-11T02:10:28;97645.41;;;15.52;65.83
15489;BME280;7846;48.830;9.116;2023-05-11T02:12:55;97645.22;;;15.54;65.95
15489;BME280;7846;48.830;9.116;2023-05-11T02:15:21;97652.09;;;15.48;66.16
15489;BME280;7846;48.830;9.116;2023-05-11T02:17:46;97646.16;;;15.46;66.10
15489;BME280;7846;48.830;9.116;2023-05-11T02:20:12;97648.81;;;15.46;66.27
15489;BME280;7846;48.830;9.116;2023-05-11T02:22:38;97655.28;;;15.37;66.74
15489;BME280;7846;48.830;9.116;2023-05-11T02:25:07;97657.50;;;15.61;66.13
15489;BME280;7846;48.830;9.116;2023-05-11T02:27:32;97653.25;;;15.39;66.23
15489;BME280;7846;48.830;9.116;2023-05-11T02:30:00;97655.22;;;15.30;66.88
15489;BME280;7846;48.830;9.116;2023-05-11T02:32:27;97646.25;;;15.59;66.52
15489;BME280;7846;48.830;9.116;2023-05-11T02:35:00;97650.25;;;15.70;66.44
15489;BME280;7846;48.830;9.116;2023-05-11T02:37:26;97649.88;;;15.52;66.44
15489;BME280;7846;48.830;9.116;2023-05-11T02:40:02;97646.41;;;15.51;66.88
15489;BME280;7846;48.830;9.116;2023-05-11T02:42:29;97647.81;;;15.47;66.60
15489;BME280;7846;48.830;9.116;2023-05-11T02:45:00;97647.03;;;15.53;66.37
15489;BME280;7846;48.830;9.116;2023-05-11T02:47:31;97642.97;;;15.57;66.62
15489;BME280;7846;48.830;9.116;2023-05-11T02:50:00;97644.50;;;15.66;66.30
15489;BME280;7846;48.830;9.116;2023-05-11T02:52:27;97649.25;;;15.49;66.46
15489;BME280;7846;48.830;9.116;2023-05-11T02:54:53;97650.69;;;15.52;66.37
15489;BME280;7846;48.830;9.116;2023-05-11T02:57:19;97648.78;;;15.67;65.89
15489;BME280;7846;48.830;9.116;2023-05-11T02:59:45;97644.34;;;15.46;66.46
15489;BME280;7846;48.830;9.116;2023-05-11T03:02:12;97644.81;;;15.57;65.99
15489;BME280;7846;48.830;9.116;2023-05-11T03:04:38;97642.69;;;15.45;66.36
15489;BME280;7846;48.830;9.116;2023-05-11T03:07:06;97641.91;;;15.23;67.11
15489;BME280;7846;48.830;9.116;2023-05-11T03:09:33;97642.97;;;15.29;66.93
15489;BME280;7846;48.830;9.116;2023-05-11T03:12:00;97638.03;;;15.26;67.28
15489;BME280;7846;48.830;9.116;2023-05-11T03:14:26;97642.16;;;15.07;67.55
15489;BME280;7846;48.830;9.116;2023-05-11T03:16:52;97641.13;;;15.30;67.25
15489;BME280;7846;48.830;9.116;2023-05-11T03:19:21;97640.31;;;15.29;67.41
15489;BME280;7846;48.830;9.116;2023-05-11T03:21:50;97631.53;;;15.57;66.84
15489;BME280;7846;48.830;9.116;2023-05-11T03:24:16;97637.16;;;15.40;66.78
15489;BME280;7846;48.830;9.116;2023-05-11T03:26:42;97638.25;;;15.53;66.10
15489;BME280;7846;48.830;9.116;2023-05-11T03:29:08;97640.53;;;15.56;65.87
15489;BME280;7846;48.830;9.116;2023-05-11T03:31:35;97629.16;;;15.62;65.75
15489;BME280;7846;48.830;9.116;2023-05-11T03:34:01;97637.16;;;15.40;66.06
15489;BME280;7846;48.830;9.116;2023-05-11T03:36:27;97636.81;;;15.50;66.59
15489;BME280;7846;48.830;9.116;2023-05-11T03:38:54;97628.16;;;15.13;66.85
15489;BME280;7846;48.830;9.116;2023-05-11T03:41:24;97629.03;;;15.20;67.25
15489;BME280;7846;48.830;9.116;2023-05-11T03:43:51;97637.44;;;15.24;66.64
15489;BME280;7846;48.830;9.116;2023-05-11T03:46:20;97632.44;;;15.36;66.61
15489;BME280;7846;48.830;9.116;2023-05-11T03:48:46;97630.03;;;14.98;66.93
15489;BME280;7846;48.830;9.116;2023-05-11T03:51:12;97629.56;;;15.09;67.20
15489;BME280;7846;48.830;9.116;2023-05-11T03:53:38;97624.00;;;15.04;67.21
15489;BME280;7846;48.830;9.116;2023-05-11T03:56:04;97624.69;;;14.91;67.75
15489;BME280;7846;48.830;9.116;2023-05-11T03:58:31;97622.53;;;15.01;67.18
15489;BME280;7846;48.830;9.116;2023-05-11T04:00:57;97625.69;;;14.90;67.53
15489;BME280;7846;48.830;9.116;2023-05-11T04:03:23;97623.22;;;14.67;68.01
15489;BME280;7846;48.830;9.116;2023-05-11T04:05:48;97631.16;;;14.67;68.08
15489;BME280;7846;48.830;9.116;2023-05-11T04:08:14;97622.84;;;14.70;67.98
15489;BME280;7846;48.830;9.116;2023-05-11T04:10:40;97622.53;;;14.59;68.70
15489;BME280;7846;48.830;9.116;2023-05-11T04:13:06;97626.66;;;14.61;68.51
15489;BME280;7846;48.830;9.116;2023-05-11T04:15:31;97621.22;;;14.69;68.34
15489;BME280;7846;48.830;9.116;2023-05-11T04:17:58;97628.84;;;14.58;68.44
15489;BME280;7846;48.830;9.116;2023-05-11T04:20:25;97626.72;;;14.53;68.49
15489;BME280;7846;48.830;9.116;2023-05-11T04:22:51;97614.00;;;14.63;68.39
15489;BME280;7846;48.830;9.116;2023-05-11T04:25:16;97614.66;;;14.65;68.56
15489;BME280;7846;48.830;9.116;2023-05-11T04:27:42;97624.69;;;14.70;68.17
15489;BME280;7846;48.830;9.116;2023-05-11T04:30:08;97623.72;;;14.56;68.19
15489;BME280;7846;48.830;9.116;2023-05-11T04:32:33;97619.50;;;14.62;68.54
15489;BME280;7846;48.830;9.116;2023-05-11T04:34:59;97615.66;;;14.86;67.85
15489;BME280;7846;48.830;9.116;2023-05-11T04:37:25;97617.13;;;14.67;68.74
15489;BME280;7846;48.830;9.116;2023-05-11T04:39:50;97626.75;;;14.74;68.48
15489;BME280;7846;48.830;9.116;2023-05-11T04:42:17;97620.50;;;14.61;68.73
15489;BME280;7846;48.830;9.116;2023-05-11T04:44:43;97627.41;;;14.76;68.65
15489;BME280;7846;48.830;9.116;2023-05-11T04:47:11;97627.03;;;14.80;68.38
15489;BME280;7846;48.830;9.116;2023-05-11T04:49:36;97619.34;;;14.85;68.35
15489;BME280;7846;48.830;9.116;2023-05-11T04:52:01;97620.88;;;15.22;67.91
15489;BME280;7846;48.830;9.116;2023-05-11T04:54:27;97635.84;;;14.87;68.43
15489;BME280;7846;48.830;9.116;2023-05-11T04:56:52;97627.47;;;14.83;68.36
15489;BME280;7846;48.830;9.116;2023-05-11T04:59:18;97624.06;;;15.11;67.73
15489;BME280;7846;48.830;9.116;2023-05-11T05:01:44;97625.63;;;15.05;67.20
15489;BME280;7846;48.830;9.116;2023-05-11T05:04:09;97629.44;;;14.96;68.31
15489;BME280;7846;48.830;9.116;2023-05-11T05:06:35;97629.88;;;14.99;67.66
15489;BME280;7846;48.830;9.116;2023-05-11T05:09:02;97630.03;;;15.19;67.37
15489;BME280;7846;48.830;9.116;2023-05-11T05:11:27;97632.66;;;15.41;66.71
15489;BME280;7846;48.830;9.116;2023-05-11T05:13:53;97629.59;;;15.16;67.41
15489;BME280;7846;48.830;9.116;2023-05-11T05:16:19;97629.16;;;15.12;67.62
15489;BME280;7846;48.830;9.116;2023-05-11T05:18:45;97634.78;;;15.24;67.26
15489;BME280;7846;48.830;9.116;2023-05-11T05:21:10;97627.75;;;15.16;67.25
15489;BME280;7846;48.830;9.116;2023-05-11T05:23:37;97632.06;;;15.17;67.43
15489;BME280;7846;48.830;9.116;2023-05-11T05:26:03;97629.78;;;15.36;66.79
15489;BME280;7846;48.830;9.116;2023-05-11T05:28:29;97632.59;;;15.06;67.37
15489;BME280;7846;48.830;9.116;2023-05-11T05:30:54;97638.63;;;15.21;67.04
15489;BME280;7846;48.830;9.116;2023-05-11T05:33:20;97644.75;;;15.22;67.11
15489;BME280;7846;48.830;9.116;2023-05-11T05:35:45;97639.06;;;15.25;66.90
15489;BME280;7846;48.830;9.116;2023-05-11T05:38:11;97648.25;;;15.51;65.98
15489;BME280;7846;48.830;9.116;2023-05-11T05:40:36;97645.16;;;15.47;65.92
15489;BME280;7846;48.830;9.116;2023-05-11T05:43:04;97646.72;;;15.41;65.82
15489;BME280;7846;48.830;9.116;2023-05-11T05:45:29;97640.63;;;15.41;65.71
15489;BME280;7846;48.830;9.116;2023-05-11T05:47:54;97641.53;;;15.76;65.19
15489;BME280;7846;48.830;9.116;2023-05-11T05:50:22;97645.69;;;15.92;64.37
15489;BME280;7846;48.830;9.116;2023-05-11T05:52:48;97648.22;;;16.07;64.26
15489;BME280;7846;48.830;9.116;2023-05-11T05:55:13;97646.16;;;16.02;64.22
15489;BME280;7846;48.830;9.116;2023-05-11T05:57:38;97649.69;;;16.09;63.89
15489;BME280;7846;48.830;9.116;2023-05-11T06:00:04;97648.63;;;16.04;64.05
15489;BME280;7846;48.830;9.116;2023-05-11T06:02:30;97648.75;;;16.30;63.79
15489;BME280;7846;48.830;9.116;2023-05-11T06:04:55;97657.91;;;16.21;64.03
15489;BME280;7846;48.830;9.116;2023-05-11T06:07:21;97658.50;;;16.23;63.47
15489;BME280;7846;48.830;9.116;2023-05-11T06:09:46;97653.88;;;15.97;63.51
15489;BME280;7846;48.830;9.116;2023-05-11T06:12:12;97652.78;;;16.19;63.93
15489;BME280;7846;48.830;9.116;2023-05-11T06:14:38;97655.38;;;16.13;64.88
15489;BME280;7846;48.830;9.116;2023-05-11T06:17:08;97653.09;;;16.44;63.93
15489;BME280;7846;48.830;9.116;2023-05-11T06:19:33;97659.00;;;16.40;64.32
15489;BME280;7846;48.830;9.116;2023-05-11T06:21:58;97662.38;;;15.86;65.48
15489;BME280;7846;48.830;9.116;2023-05-11T06:24:25;97661.69;;;16.05;65.60
15489;BME280;7846;48.830;9.116;2023-05-11T06:26:50;97654.41;;;16.14;65.96
15489;BME280;7846;48.830;9.116;2023-05-11T06:29:15;97664.53;;;15.69;65.89
15489;BME280;7846;48.830;9.116;2023-05-11T06:31:42;97662.88;;;15.96;66.40
15489;BME280;7846;48.830;9.116;2023-05-11T06:34:08;97658.59;;;16.36;65.85
15489;BME280;7846;48.830;9.116;2023-05-11T06:36:33;97658.41;;;16.03;65.88
15489;BME280;7846;48.830;9.116;2023-05-11T06:38:59;97659.50;;;16.15;65.71
15489;BME280;7846;48.830;9.116;2023-05-11T06:41:25;97660.19;;;16.31;65.95
15489;BME280;7846;48.830;9.116;2023-05-11T06:43:51;97656.34;;;15.99;65.96
15489;BME280;7846;48.830;9.116;2023-05-11T06:46:16;97659.91;;;16.19;65.99
15489;BME280;7846;48.830;9.116;2023-05-11T06:48:42;97659.88;;;16.12;66.13
15489;BME280;7846;48.830;9.116;2023-05-11T06:51:10;97655.50;;;15.91;67.28
15489;BME280;7846;48.830;9.116;2023-05-11T06:53:36;97662.53;;;16.12;66.15
15489;BME280;7846;48.830;9.116;2023-05-11T06:56:02;97655.13;;;16.01;66.65
15489;BME280;7846;48.830;9.116;2023-05-11T06:58:28;97651.38;;;15.89;66.54
15489;BME280;7846;48.830;9.116;2023-05-11T07:00:53;97659.41;;;15.95;66.82
15489;BME280;7846;48.830;9.116;2023-05-11T07:03:21;97659.31;;;16.17;66.57
15489;BME280;7846;48.830;9.116;2023-05-11T07:05:48;97654.31;;;16.01;67.14
15489;BME280;7846;48.830;9.116;2023-05-11T07:08:14;97650.69;;;16.08;67.67
15489;BME280;7846;48.830;9.116;2023-05-11T07:10:40;97662.34;;;16.14;67.58
15489;BME280;7846;48.830;9.116;2023-05-11T07:13:07;97660.22;;;15.96;68.14
15489;BME280;7846;48.830;9.116;2023-05-11T07:15:32;97664.50;;;16.32;68.15
15489;BME280;7846;48.830;9.116;2023-05-11T07:17:58;97670.34;;;16.68;65.85
15489;BME280;7846;48.830;9.116;2023-05-11T07:20:25;97665.59;;;16.57;66.61
15489;BME280;7846;48.830;9.116;2023-05-11T07:22:50;97669.88;;;16.52;66.75
15489;BME280;7846;48.830;9.116;2023-05-11T07:25:15;97669.34;;;16.69;66.34
15489;BME280;7846;48.830;9.116;2023-05-11T07:27:42;97672.72;;;16.43;66.91
15489;BME280;7846;48.830;9.116;2023-05-11T07:30:09;97666.59;;;16.50;65.25
15489;BME280;7846;48.830;9.116;2023-05-11T07:32:34;97675.19;;;15.76;67.86
15489;BME280;7846;48.830;9.116;2023-05-11T07:35:00;97676.63;;;16.06;67.91
15489;BME280;7846;48.830;9.116;2023-05-11T07:37:25;97678.38;;;15.92;68.05
15489;BME280;7846;48.830;9.116;2023-05-11T07:39:51;97672.34;;;16.12;67.33
15489;BME280;7846;48.830;9.116;2023-05-11T07:42:16;97679.56;;;15.90;67.46
15489;BME280;7846;48.830;9.116;2023-05-11T07:44:43;97680.63;;;15.67;69.51
15489;BME280;7846;48.830;9.116;2023-05-11T07:47:08;97677.41;;;15.72;68.20
15489;BME280;7846;48.830;9.116;2023-05-11T07:49:33;97675.38;;;15.53;69.55
15489;BME280;7846;48.830;9.116;2023-05-11T07:51:59;97675.25;;;16.24;68.26
15489;BME280;7846;48.830;9.116;2023-05-11T07:54:24;97674.66;;;16.21;68.32
15489;BME280;7846;48.830;9.116;2023-05-11T07:56:50;97681.25;;;15.97;67.03
15489;BME280;7846;48.830;9.116;2023-05-11T07:59:16;97679.28;;;16.13;68.34
15489;BME280;7846;48.830;9.116;2023-05-11T08:01:41;97680.25;;;16.40;67.35
15489;BME280;7846;48.830;9.116;2023-05-11T08:04:07;97669.31;;;15.80;69.12
15489;BME280;7846;48.830;9.116;2023-05-11T08:06:32;97670.63;;;16.32;69.37
15489;BME280;7846;48.830;9.116;2023-05-11T08:08:58;97671.84;;;16.84;67.03
15489;BME280;7846;48.830;9.116;2023-05-11T08:11:23;97673.84;;;16.21;68.93
15489;BME280;7846;48.830;9.116;2023-05-11T08:13:49;97670.47;;;16.47;68.07
15489;BME280;7846;48.830;9.116;2023-05-11T08:16:15;97678.59;;;16.87;68.12
15489;BME280;7846;48.830;9.116;2023-05-11T08:18:40;97676.66;;;16.61;66.41
15489;BME280;7846;48.830;9.116;2023-05-11T08:21:06;97676.88;;;16.66;67.70
15489;BME280;7846;48.830;9.116;2023-05-11T08:23:31;97677.44;;;17.09;66.91
15489;BME280;7846;48.830;9.116;2023-05-11T08:25:57;97688.69;;;16.57;67.39
15489;BME280;7846;48.830;9.116;2023-05-11T08:28:22;97679.44;;;17.01;67.08
15489;BME280;7846;48.830;9.116;2023-05-11T08:30:55;97681.44;;;16.79;67.71
15489;BME280;7846;48.830;9.116;2023-05-11T08:33:21;97677.81;;;16.93;67.16
15489;BME280;7846;48.830;9.116;2023-05-11T08:35:47;97685.88;;;16.72;67.51
15489;BME280;7846;48.830;9.116;2023-05-11T08:38:13;97676.97;;;16.86;67.08
15489;BME280;7846;48.830;9.116;2023-05-11T08:40:38;97672.94;;;17.30;65.71
15489;BME280;7846;48.830;9.116;2023-05-11T08:43:12;97669.06;;;17.92;64.96
15489;BME280;7846;48.830;9.116;2023-05-11T08:45:40;97675.19;;;18.06;62.88
15489;BME280;7846;48.830;9.116;2023-05-11T08:48:07;97675.63;;;17.56;62.96
15489;BME280;7846;48.830;9.116;2023-05-11T08:50:32;97680.31;;;17.67;63.16
15489;BME280;7846;48.830;9.116;2023-05-11T08:52:58;97679.72;;;17.52;64.15
15489;BME280;7846;48.830;9.116;2023-05-11T08:55:25;97683.19;;;17.53;62.90
15489;BME280;7846;48.830;9.116;2023-05-11T08:57:56;97677.47;;;17.82;63.38
15489;BME280;7846;48.830;9.116;2023-05-11T09:00:22;97671.28;;;17.15;64.17
15489;BME280;7846;48.830;9.116;2023-05-11T09:02:49;97679.31;;;17.62;62.93
15489;BME280;7846;48.830;9.116;2023-05-11T09:05:16;97682.16;;;17.27;64.15
15489;BME280;7846;48.830;9.116;2023-05-11T09:07:43;97688.72;;;17.51;63.24
15489;BME280;7846;48.830;9.116;2023-05-11T09:10:12;97683.19;;;17.33;63.29
15489;BME280;7846;48.830;9.116;2023-05-11T09:12:38;97679.91;;;17.44;63.33
15489;BME280;7846;48.830;9.116;2023-05-11T09:15:06;97669.25;;;17.11;63.36
15489;BME280;7846;48.830;9.116;2023-05-11T09:17:32;97683.34;;;16.43;66.52
15489;BME280;7846;48.830;9.116;2023-05-11T09:20:02;97673.69;;;16.77;67.08
15489;BME280;7846;48.830;9.116;2023-05-11T09:22:34;97678.00;;;16.85;66.22
15489;BME280;7846;48.830;9.116;2023-05-11T09:25:04;97671.28;;;17.15;65.22
15489;BME280;7846;48.830;9.116;2023-05-11T09:27:30;97669.06;;;17.32;64.59
15489;BME280;7846;48.830;9.116;2023-05-11T09:29:56;97681.69;;;16.84;66.29
15489;BME280;7846;48.830;9.116;2023-05-11T09:32:21;97675.94;;;16.87;66.57
15489;BME280;7846;48.830;9.116;2023-05-11T09:34:47;97677.66;;;17.14;66.29
15489;BME280;7846;48.830;9.116;2023-05-11T09:37:16;97674.41;;;17.32;65.47
15489;BME280;7846;48.830;9.116;2023-05-11T09:39:42;97682.41;;;16.71;66.59
15489;BME280;7846;48.830;9.116;2023-05-11T09:42:18;97684.34;;;16.42;67.22
15489;BME280;7846;48.830;9.116;2023-05-11T09:44:45;97680.91;;;16.07;67.41
15489;BME280;7846;48.830;9.116;2023-05-11T09:47:18;97674.69;;;16.35;67.55
15489;BME280;7846;48.830;9.116;2023-05-11T09:49:46;97675.97;;;16.45;67.87
15489;BME280;7846;48.830;9.116;2023-05-11T09:52:13;97675.91;;;16.74;66.55
15489;BME280;7846;48.830;9.116;2023-05-11T09:54:41;97674.78;;;17.03;65.13
15489;BME280;7846;48.830;9.116;2023-05-11T09:57:29;97668.59;;;16.89;66.00
15489;BME280;7846;48.830;9.116;2023-05-11T09:59:56;97676.38;;;16.84;66.70
15489;BME280;7846;48.830;9.116;2023-05-11T10:02:29;97680.03;;;16.83;66.81
15489;BME280;7846;48.830;9.116;2023-05-11T10:04:59;97680.91;;;17.10;66.88
15489;BME280;7846;48.830;9.116;2023-05-11T10:07:32;97674.34;;;17.12;66.11
15489;BME280;7846;48.830;9.116;2023-05-11T10:10:06;97680.34;;;16.66;66.60
15489;BME280;7846;48.830;9.116;2023-05-11T10:12:32;97677.91;;;16.65;67.13
15489;BME280;7846;48.830;9.116;2023-05-11T10:15:01;97685.31;;;16.28;68.71
15489;BME280;7846;48.830;9.116;2023-05-11T10:17:27;97664.78;;;16.50;68.51
15489;BME280;7846;48.830;9.116;2023-05-11T10:19:54;97671.75;;;16.58;67.05
15489;BME280;7846;48.830;9.116;2023-05-11T10:22:23;97680.25;;;16.40;68.83
15489;BME280;7846;48.830;9.116;2023-05-11T10:24:49;97677.78;;;16.32;70.34
15489;BME280;7846;48.830;9.116;2023-05-11T10:27:14;97679.72;;;16.16;69.55
15489;BME280;7846;48.830;9.116;2023-05-11T10:29:41;97674.00;;;16.54;69.37
15489;BME280;7846;48.830;9.116;2023-05-11T10:32:09;97670.44;;;16.88;68.64
15489;BME280;7846;48.830;9.116;2023-05-11T10:34:35;97677.56;;;16.81;69.02
15489;BME280;7846;48.830;9.116;2023-05-11T10:37:00;97672.47;;;16.38;69.70
15489;BME280;7846;48.830;9.116;2023-05-11T10:39:28;97666.94;;;15.92;71.34
15489;BME280;7846;48.830;9.116;2023-05-11T10:42:06;97672.91;;;16.01;70.51
15489;BME280;7846;48.830;9.116;2023-05-11T10:47:47;97664.59;;;16.58;69.98
15489;BME280;7846;48.830;9.116;2023-05-11T10:50:51;97668.53;;;16.28;68.75
15489;BME280;7846;48.830;9.116;2023-05-11T10:59:15;97660.81;;;15.98;68.87
15489;BME280;7846;48.830;9.116;2023-05-11T11:01:45;97663.75;;;15.75;69.47
15489;BME280;7846;48.830;9.116;2023-05-11T11:04:13;97662.44;;;15.92;69.44
15489;BME280;7846;48.830;9.116;2023-05-11T11:06:41;97652.66;;;16.41;70.79
15489;BME280;7846;48.830;9.116;2023-05-11T11:09:12;97660.50;;;16.56;68.05
15489;BME280;7846;48.830;9.116;2023-05-11T11:11:45;97670.34;;;16.68;65.95
15489;BME280;7846;48.830;9.116;2023-05-11T11:14:12;97651.50;;;16.50;68.80
15489;BME280;7846;48.830;9.116;2023-05-11T11:16:39;97656.50;;;16.25;67.53
15489;BME280;7846;48.830;9.116;2023-05-11T11:21:56;97651.06;;;16.47;63.77
15489;BME280;7846;48.830;9.116;2023-05-11T11:24:48;97654.53;;;16.54;67.33
15489;BME280;7846;48.830;9.116;2023-05-11T11:27:13;97657.72;;;16.77;65.43
15489;BME280;7846;48.830;9.116;2023-05-11T11:29:40;97650.97;;;16.27;66.33
15489;BME280;7846;48.830;9.116;2023-05-11T11:34:47;97651.03;;;16.95;67.03
15489;BME280;7846;48.830;9.116;2023-05-11T11:37:14;97649.81;;;17.30;63.84
15489;BME280;7846;48.830;9.116;2023-05-11T11:42:11;97648.78;;;17.05;63.44
15489;BME280;7846;48.830;9.116;2023-05-11T11:44:38;97653.75;;;16.60;63.72
15489;BME280;7846;48.830;9.116;2023-05-11T11:47:20;97642.25;;;17.21;61.40
15489;BME280;7846;48.830;9.116;2023-05-11T11:49:52;97648.97;;;16.97;58.29
15489;BME280;7846;48.830;9.116;2023-05-11T11:54:54;97646.31;;;17.96;59.87
15489;BME280;7846;48.830;9.116;2023-05-11T11:59:58;97648.72;;;18.18;58.56
15489;BME280;7846;48.830;9.116;2023-05-11T12:02:25;97649.53;;;18.25;58.46
15489;BME280;7846;48.830;9.116;2023-05-11T12:05:10;97645.91;;;17.93;58.44
15489;BME280;7846;48.830;9.116;2023-05-11T12:07:40;97654.72;;;17.93;57.53
15489;BME280;7846;48.830;9.116;2023-05-11T12:10:06;97649.63;;;17.65;57.97
15489;BME280;7846;48.830;9.116;2023-05-11T12:12:32;97644.31;;;17.58;58.30
15489;BME280;7846;48.830;9.116;2023-05-11T12:14:58;97642.19;;;18.58;56.89
15489;BME280;7846;48.830;9.116;2023-05-11T12:17:27;97635.97;;;19.09;54.44
15489;BME280;7846;48.830;9.116;2023-05-11T12:19:54;97638.47;;;19.79;54.59
15489;BME280;7846;48.830;9.116;2023-05-11T12:22:23;97642.19;;;18.07;58.33
15489;BME280;7846;48.830;9.116;2023-05-11T12:24:49;97645.66;;;18.14;58.04
15489;BME280;7846;48.830;9.116;2023-05-11T12:27:18;97641.53;;;18.25;57.41
15489;BME280;7846;48.830;9.116;2023-05-11T12:29:50;97639.78;;;17.59;58.45
15489;BME280;7846;48.830;9.116;2023-05-11T12:32:37;97637.09;;;17.92;57.14
15489;BME280;7846;48.830;9.116;2023-05-11T12:35:03;97642.44;;;17.99;56.80
15489;BME280;7846;48.830;9.116;2023-05-11T12:37:30;97627.00;;;18.66;56.60
15489;BME280;7846;48.830;9.116;2023-05-11T12:39:56;97632.78;;;18.49;57.78
15489;BME280;7846;48.830;9.116;2023-05-11T12:42:22;97631.81;;;18.44;56.14
15489;BME280;7846;48.830;9.116;2023-05-11T12:44:48;97627.19;;;18.71;57.64
15489;BME280;7846;48.830;9.116;2023-05-11T12:47:13;97618.25;;;17.87;56.76
15489;BME280;7846;48.830;9.116;2023-05-11T12:49:41;97622.25;;;18.23;55.23
15489;BME280;7846;48.830;9.116;2023-05-11T12:52:07;97627.44;;;18.94;53.74
15489;BME280;7846;48.830;9.116;2023-05-11T12:54:37;97624.19;;;18.02;56.17
15489;BME280;7846;48.830;9.116;2023-05-11T12:57:03;97615.88;;;19.07;54.42
15489;BME280;7846;48.830;9.116;2023-05-11T12:59:40;97611.94;;;20.40;51.26
15489;BME280;7846;48.830;9.116;2023-05-11T13:02:14;97615.88;;;19.57;53.16
15489;BME280;7846;48.830;9.116;2023-05-11T13:04:40;97609.28;;;20.21;51.93
15489;BME280;7846;48.830;9.116;2023-05-11T13:07:07;97612.50;;;18.86;53.30
15489;BME280;7846;48.830;9.116;2023-05-11T13:09:33;97609.81;;;18.03;55.33
15489;BME280;7846;48.830;9.116;2023-05-11T13:12:17;97602.72;;;18.80;55.30
15489;BME280;7846;48.830;9.116;2023-05-11T13:14:47;97602.28;;;19.40;50.91
15489;BME280;7846;48.830;9.116;2023-05-11T13:17:27;97601.63;;;17.98;54.59
15489;BME280;7846;48.830;9.116;2023-05-11T13:19:54;97600.22;;;18.02;55.88
15489;BME280;7846;48.830;9.116;2023-05-11T13:22:19;97599.06;;;18.75;50.99
15489;BME280;7846;48.830;9.116;2023-05-11T13:24:44;97593.31;;;18.78;53.15
15489;BME280;7846;48.830;9.116;2023-05-11T13:27:11;97588.09;;;18.51;50.83
15489;BME280;7846;48.830;9.116;2023-05-11T13:29:37;97582.41;;;18.41;50.74
15489;BME280;7846;48.830;9.116;2023-05-11T13:32:02;97589.16;;;17.99;52.35
15489;BME280;7846;48.830;9.116;2023-05-11T13:34:29;97588.53;;;19.80;50.12
15489;BME280;7846;48.830;9.116;2023-05-11T13:36:55;97584.44;;;21.35;48.00
15489;BME280;7846;48.830;9.116;2023-05-11T13:39:21;97587.41;;;22.20;46.94